Time;durP1;ratioP1;P1;durP2;ratioP2;P2;SDS_P1;SDS_P2;PMS_P1;PMS_P2;Temp;Humidity;BMP_temperature;BMP_pressure;BME280_temperature;BME280_humidity;BME280_pressure;Samples;Min_cycle;Max_cycle;Signal;HPM_P1;HPM_P2
2024/01/10 00:02:15;;;;;;;26.25;12.77;;;;;;;;;;5072018;28;20078;-69
2024/01/10 00:05:01;;;;;;;29.90;13.95;;;;;;;;;;5072096;28;20513;-69
2024/01/10 00:07:46;;;;;;;25.73;13.57;;;;;;;;;;5071789;28;20028;-69
2024/01/10 00:10:32;;;;;;;26.23;12.30;;;;;;;;;;5070312;28;20024;-69
2024/01/10 00:13:17;;;;;;;24.63;12.20;;;;;;;;;;5052057;28;20024;-69
2024/01/10 00:16:03;;;;;;;23.77;11.77;;;;;;;;;;5057205;28;20023;-68
2024/01/10 00:18:49;;;;;;;27.10;13.82;;;;;;;;;;5052781;28;20516;-69
2024/01/10 00:21:36;;;;;;;23.48;12.52;;;;;;;;;;5051276;28;20450;-69
2024/01/10 00:24:21;;;;;;;29.02;13.75;;;;;;;;;;5053173;28;20025;-69
2024/01/10 00:27:07;;;;;;;27.45;12.63;;;;;;;;;;5057780;28;20032;-69
2024/01/10 00:29:53;;;;;;;23.92;11.90;;;;;;;;;;5051917;28;20029;-69
2024/01/10 00:32:38;;;;;;;28.77;14.48;;;;;;;;;;5052187;28;20031;-69
2024/01/10 00:35:24;;;;;;;26.25;12.30;;;;;;;;;;5052465;28;20036;-69
2024/01/10 00:38:10;;;;;;;30.98;13.60;;;;;;;;;;5052602;28;20029;-68
2024/01/10 00:40:56;;;;;;;29.40;13.25;;;;;;;;;;5052533;28;20483;-68
2024/01/10 00:43:42;;;;;;;23.38;13.13;;;;;;;;;;5055359;28;20044;-70
2024/01/10 00:46:27;;;;;;;23.13;13.30;;;;;;;;;;5051911;28;20025;-69
2024/01/10 00:49:13;;;;;;;29.38;14.27;;;;;;;;;;5051668;28;20025;-69
2024/01/10 00:51:58;;;;;;;26.63;13.50;;;;;;;;;;5052233;28;20021;-68
2024/01/10 00:54:45;;;;;;;29.02;13.27;;;;;;;;;;5051764;28;20513;-68
2024/01/10 00:57:31;;;;;;;32.35;14.40;;;;;;;;;;5054342;28;20498;-69
2024/01/10 01:00:17;;;;;;;25.00;13.07;;;;;;;;;;5064604;28;20029;-69
2024/01/10 01:03:02;;;;;;;24.80;11.68;;;;;;;;;;5065710;28;20021;-69
2024/01/10 01:05:48;;;;;;;26.90;12.68;;;;;;;;;;5071843;28;20047;-69
2024/01/10 01:08:34;;;;;;;27.80;13.68;;;;;;;;;;5072575;28;20025;-68
2024/01/10 01:11:19;;;;;;;29.27;13.73;;;;;;;;;;5072543;28;20051;-69
2024/01/10 01:14:05;;;;;;;28.90;12.73;;;;;;;;;;5075506;28;20055;-69
2024/01/10 01:16:50;;;;;;;36.38;19.48;;;;;;;;;;5075464;28;20607;-69
2024/01/10 01:19:36;;;;;;;34.58;16.90;;;;;;;;;;5076913;28;20023;-68
2024/01/10 01:22:22;;;;;;;29.30;13.52;;;;;;;;;;5076600;28;20028;-68
2024/01/10 01:25:08;;;;;;;28.70;12.35;;;;;;;;;;5075548;28;20419;-68
2024/01/10 01:27:54;;;;;;;23.05;10.95;;;;;;;;;;5075108;28;20028;-68
2024/01/10 01:30:40;;;;;;;22.20;11.00;;;;;;;;;;5076377;28;20455;-68
2024/01/10 01:33:25;;;;;;;24.65;12.93;;;;;;;;;;5075128;28;20397;-68
2024/01/10 01:36:11;;;;;;;43.80;17.90;;;;;;;;;;5074915;28;20107;-69
2024/01/10 01:38:57;;;;;;;34.92;14.27;;;;;;;;;;5075381;28;20020;-68
2024/01/10 01:41:42;;;;;;;25.83;13.98;;;;;;;;;;5075287;28;20016;-68
2024/01/10 01:44:28;;;;;;;25.70;14.27;;;;;;;;;;5074763;28;20020;-69
2024/01/10 01:47:14;;;;;;;27.02;13.70;;;;;;;;;;5075113;28;20032;-68
2024/01/10 01:50:00;;;;;;;34.47;15.77;;;;;;;;;;5073664;28;20104;-68
2024/01/10 01:52:45;;;;;;;29.15;14.25;;;;;;;;;;5075761;28;20027;-68
2024/01/10 01:55:31;;;;;;;24.02;12.20;;;;;;;;;;5076628;28;20025;-69
2024/01/10 01:58:18;;;;;;;24.63;12.35;;;;;;;;;;5074836;28;20565;-69
2024/01/10 02:01:05;;;;;;;24.13;12.30;;;;;;;;;;5074921;28;20466;-68
2024/01/10 02:03:50;;;;;;;32.15;11.95;;;;;;;;;;5074729;28;20393;-69
2024/01/10 02:06:36;;;;;;;27.88;14.68;;;;;;;;;;5074675;28;20021;-68
2024/01/10 02:09:21;;;;;;;23.65;12.23;;;;;;;;;;5075660;28;20025;-69
2024/01/10 02:12:07;;;;;;;25.83;12.10;;;;;;;;;;5075954;28;20028;-68
2024/01/10 02:14:53;;;;;;;25.33;11.10;;;;;;;;;;5074501;28;20063;-69
2024/01/10 02:17:38;;;;;;;26.25;12.70;;;;;;;;;;5073492;28;20028;-69
2024/01/10 02:20:24;;;;;;;28.52;12.55;;;;;;;;;;5074820;28;20016;-68
2024/01/10 02:23:10;;;;;;;26.20;12.25;;;;;;;;;;5073993;28;20025;-68
2024/01/10 02:25:55;;;;;;;27.42;12.40;;;;;;;;;;5073850;28;20016;-69
2024/01/10 02:28:41;;;;;;;25.05;12.35;;;;;;;;;;5190043;22;20070;-66
2024/01/10 02:31:27;;;;;;;28.25;12.98;;;;;;;;;;5094695;28;20051;-66
2024/01/10 02:34:13;;;;;;;28.13;13.73;;;;;;;;;;5096147;28;20590;-66
2024/01/10 02:36:58;;;;;;;25.92;11.88;;;;;;;;;;5094359;28;20112;-66
2024/01/10 02:39:44;;;;;;;24.75;13.10;;;;;;;;;;5075706;28;20021;-66
2024/01/10 02:42:30;;;;;;;30.13;12.45;;;;;;;;;;5073675;28;20478;-66
2024/01/10 02:45:17;;;;;;;36.22;14.55;;;;;;;;;;5058716;28;20032;-66
2024/01/10 02:48:03;;;;;;;27.85;12.95;;;;;;;;;;5066503;28;20016;-66
2024/01/10 02:50:48;;;;;;;25.35;14.18;;;;;;;;;;5073802;28;20017;-66
2024/01/10 02:53:34;;;;;;;25.83;12.77;;;;;;;;;;5073190;28;20016;-66
2024/01/10 02:56:19;;;;;;;27.45;12.45;;;;;;;;;;5073633;28;20444;-66
2024/01/10 02:59:05;;;;;;;28.92;12.35;;;;;;;;;;5073479;28;20024;-65
2024/01/10 03:01:51;;;;;;;28.17;12.27;;;;;;;;;;5073001;28;20028;-66
2024/01/10 03:04:37;;;;;;;24.30;13.13;;;;;;;;;;5073014;28;20159;-66
2024/01/10 03:07:24;;;;;;;28.67;12.73;;;;;;;;;;5069619;28;20027;-66
2024/01/10 03:10:10;;;;;;;24.83;13.02;;;;;;;;;;5056676;28;20021;-66
2024/01/10 03:12:55;;;;;;;22.85;12.95;;;;;;;;;;5063582;28;20106;-66
2024/01/10 03:15:41;;;;;;;24.33;12.88;;;;;;;;;;5072765;28;20058;-66
2024/01/10 03:18:27;;;;;;;25.30;12.30;;;;;;;;;;5063480;28;20029;-66
2024/01/10 03:21:12;;;;;;;26.67;12.35;;;;;;;;;;5053582;28;20551;-66
2024/01/10 03:23:59;;;;;;;23.48;12.18;;;;;;;;;;5052313;28;20020;-65
2024/01/10 03:26:45;;;;;;;28.55;12.80;;;;;;;;;;5040914;28;20035;-66
2024/01/10 03:29:31;;;;;;;27.85;13.18;;;;;;;;;;5073172;28;20021;-66
2024/01/10 03:32:16;;;;;;;23.20;12.07;;;;;;;;;;5069058;28;20086;-66
2024/01/10 03:35:02;;;;;;;25.05;12.82;;;;;;;;;;5052776;28;20029;-65
2024/01/10 03:37:48;;;;;;;26.15;13.02;;;;;;;;;;5041570;28;20120;-66
2024/01/10 03:40:34;;;;;;;24.85;11.40;;;;;;;;;;5055116;28;20027;-66
2024/01/10 03:43:20;;;;;;;29.65;13.00;;;;;;;;;;5053083;28;20036;-66
2024/01/10 03:46:05;;;;;;;22.52;13.57;;;;;;;;;;5055031;28;20183;-66
2024/01/10 03:48:52;;;;;;;31.80;13.77;;;;;;;;;;5052046;28;20056;-65
2024/01/10 03:51:40;;;;;;;24.45;12.25;;;;;;;;;;5053952;28;20513;-66
2024/01/10 03:54:25;;;;;;;24.60;13.73;;;;;;;;;;5053125;28;20052;-66
2024/01/10 03:57:11;;;;;;;24.38;12.30;;;;;;;;;;5052124;28;20031;-65
2024/01/10 03:59:57;;;;;;;27.55;12.73;;;;;;;;;;5060993;28;20483;-66
2024/01/10 04:02:42;;;;;;;28.05;13.13;;;;;;;;;;5052630;28;20094;-66
2024/01/10 04:05:28;;;;;;;26.45;13.10;;;;;;;;;;5052987;28;20028;-66
2024/01/10 04:08:13;;;;;;;21.55;11.73;;;;;;;;;;5052060;28;20055;-67
2024/01/10 04:10:59;;;;;;;25.98;11.75;;;;;;;;;;5054232;28;20100;-66
2024/01/10 04:13:45;;;;;;;26.38;12.38;;;;;;;;;;5056068;28;20025;-66
2024/01/10 04:16:30;;;;;;;25.27;12.73;;;;;;;;;;5057499;28;20036;-66
2024/01/10 04:19:16;;;;;;;27.60;12.63;;;;;;;;;;5071530;28;20486;-66
2024/01/10 04:22:02;;;;;;;27.02;13.40;;;;;;;;;;5057824;28;20510;-66
2024/01/10 04:24:47;;;;;;;28.67;11.98;;;;;;;;;;5052432;28;20039;-66
2024/01/10 04:27:33;;;;;;;24.63;11.05;;;;;;;;;;5053311;28;20025;-66
2024/01/10 04:30:19;;;;;;;25.25;12.93;;;;;;;;;;5070896;28;20028;-66
2024/01/10 04:33:04;;;;;;;25.48;11.80;;;;;;;;;;5053923;28;20114;-66
2024/01/10 04:35:50;;;;;;;23.85;13.02;;;;;;;;;;5054888;28;20020;-65
2024/01/10 04:38:36;;;;;;;26.15;12.10;;;;;;;;;;5054491;28;20025;-66
2024/01/10 04:41:21;;;;;;;29.45;12.90;;;;;;;;;;5051371;28;20394;-65
2024/01/10 04:44:07;;;;;;;27.35;13.82;;;;;;;;;;5058739;28;20029;-66
2024/01/10 04:46:53;;;;;;;27.85;12.25;;;;;;;;;;5074790;28;20059;-66
2024/01/10 04:49:38;;;;;;;30.35;13.57;;;;;;;;;;5074713;28;20107;-66
2024/01/10 04:52:24;;;;;;;29.67;12.35;;;;;;;;;;5070612;28;20520;-66
2024/01/10 04:55:10;;;;;;;23.05;12.55;;;;;;;;;;5056044;28;20083;-65
2024/01/10 04:57:56;;;;;;;22.80;13.77;;;;;;;;;;5061158;28;20025;-66
2024/01/10 05:00:42;;;;;;;29.08;12.10;;;;;;;;;;5055848;28;20029;-65
2024/01/10 05:03:27;;;;;;;25.25;13.15;;;;;;;;;;5055531;28;20033;-65
2024/01/10 05:06:13;;;;;;;24.55;13.38;;;;;;;;;;5072995;28;20055;-66
2024/01/10 05:08:58;;;;;;;24.75;11.98;;;;;;;;;;5060153;28;20090;-66
2024/01/10 05:11:48;;;;;;;24.35;11.90;;;;;;;;;;5073924;28;20079;-65
2024/01/10 05:14:33;;;;;;;24.27;11.27;;;;;;;;;;5076220;28;20025;-65
2024/01/10 05:17:19;;;;;;;30.50;14.18;;;;;;;;;;5062090;28;20493;-66
2024/01/10 05:20:05;;;;;;;33.78;13.80;;;;;;;;;;5059751;28;20094;-65
2024/01/10 05:22:51;;;;;;;25.50;12.32;;;;;;;;;;5076368;28;20036;-66
2024/01/10 05:25:37;;;;;;;25.77;12.77;;;;;;;;;;5072428;28;20115;-65
2024/01/10 05:28:22;;;;;;;26.45;11.75;;;;;;;;;;5054980;28;20406;-65
2024/01/10 05:31:08;;;;;;;24.85;12.18;;;;;;;;;;5062463;28;20115;-66
2024/01/10 05:33:54;;;;;;;26.70;11.85;;;;;;;;;;5054521;28;20027;-65
2024/01/10 05:36:39;;;;;;;25.38;11.18;;;;;;;;;;5056772;28;20405;-66
2024/01/10 05:39:25;;;;;;;29.58;12.57;;;;;;;;;;5055355;28;20025;-65
2024/01/10 05:42:11;;;;;;;27.40;13.32;;;;;;;;;;5061497;28;20029;-65
2024/01/10 05:44:56;;;;;;;23.10;10.57;;;;;;;;;;5057755;28;20402;-66
2024/01/10 05:47:42;;;;;;;33.17;14.20;;;;;;;;;;5070248;28;20111;-66
2024/01/10 05:50:28;;;;;;;31.50;14.02;;;;;;;;;;5073925;28;20470;-65
2024/01/10 05:53:16;;;;;;;30.83;14.20;;;;;;;;;;5064608;28;20025;-66
2024/01/10 05:56:02;;;;;;;22.25;11.20;;;;;;;;;;5075074;28;20027;-65
2024/01/10 05:58:48;;;;;;;23.65;12.43;;;;;;;;;;5053386;28;20601;-66
2024/01/10 06:01:33;;;;;;;29.10;11.63;;;;;;;;;;5058208;28;20032;-65
2024/01/10 06:04:19;;;;;;;25.42;10.75;;;;;;;;;;5074400;28;20396;-66
2024/01/10 06:07:05;;;;;;;19.45;10.80;;;;;;;;;;5072928;28;20044;-66
2024/01/10 06:09:51;;;;;;;26.20;12.75;;;;;;;;;;5074294;28;20073;-66
2024/01/10 06:12:37;;;;;;;25.10;11.93;;;;;;;;;;5071996;28;20079;-65
2024/01/10 06:15:23;;;;;;;30.35;12.18;;;;;;;;;;5064460;28;20031;-66
2024/01/10 06:18:09;;;;;;;23.75;12.57;;;;;;;;;;5073593;28;20055;-66
2024/01/10 06:20:55;;;;;;;25.42;11.98;;;;;;;;;;5074335;28;20108;-66
2024/01/10 06:23:40;;;;;;;20.98;10.48;;;;;;;;;;5074460;28;20016;-65
2024/01/10 06:26:26;;;;;;;21.55;12.23;;;;;;;;;;5073413;28;20025;-66
2024/01/10 06:29:11;;;;;;;27.85;12.85;;;;;;;;;;5073066;28;20028;-66
2024/01/10 06:31:57;;;;;;;24.38;12.30;;;;;;;;;;5073296;28;20054;-65
2024/01/10 06:34:43;;;;;;;19.92;11.05;;;;;;;;;;5059518;28;20029;-66
2024/01/10 06:37:29;;;;;;;25.38;12.80;;;;;;;;;;5054590;28;20056;-66
2024/01/10 06:40:14;;;;;;;26.73;13.20;;;;;;;;;;5055064;28;20059;-66
2024/01/10 06:43:00;;;;;;;28.98;12.93;;;;;;;;;;5055201;28;20025;-65
2024/01/10 06:45:46;;;;;;;32.88;13.48;;;;;;;;;;5069132;28;20030;-66
2024/01/10 06:48:32;;;;;;;30.75;13.35;;;;;;;;;;5074398;28;20485;-65
2024/01/10 06:51:17;;;;;;;33.13;14.18;;;;;;;;;;5073400;28;20029;-66
2024/01/10 06:54:03;;;;;;;34.55;13.18;;;;;;;;;;5071047;28;20448;-65
2024/01/10 06:56:49;;;;;;;29.63;14.52;;;;;;;;;;5059554;28;20486;-66
2024/01/10 06:59:35;;;;;;;28.17;14.20;;;;;;;;;;5065665;28;20024;-65
2024/01/10 07:02:23;;;;;;;36.63;15.82;;;;;;;;;;5073367;28;20021;-65
2024/01/10 07:05:09;;;;;;;33.67;14.45;;;;;;;;;;5068821;28;20566;-65
2024/01/10 07:07:55;;;;;;;35.90;14.68;;;;;;;;;;5057443;28;20033;-65
2024/01/10 07:10:40;;;;;;;38.03;15.20;;;;;;;;;;5051841;28;20078;-66
2024/01/10 07:13:26;;;;;;;34.63;16.63;;;;;;;;;;5067295;28;20163;-66
2024/01/10 07:16:14;;;;;;;36.45;16.00;;;;;;;;;;5066858;28;20052;-64
2024/01/10 07:19:01;;;;;;;32.90;15.52;;;;;;;;;;5054352;28;20491;-66
2024/01/10 07:21:47;;;;;;;37.70;17.15;;;;;;;;;;5055589;28;20032;-65
2024/01/10 07:24:34;;;;;;;38.50;16.13;;;;;;;;;;5052986;28;20525;-65
2024/01/10 07:27:20;;;;;;;32.00;14.85;;;;;;;;;;5052029;28;20107;-65
2024/01/10 07:30:13;;;;;;;35.15;15.10;;;;;;;;;;5056629;28;20436;-66
2024/01/10 07:32:59;;;;;;;42.22;17.00;;;;;;;;;;5066521;28;20032;-65
2024/01/10 07:35:44;;;;;;;31.02;15.63;;;;;;;;;;5070261;28;20032;-65
2024/01/10 07:38:30;;;;;;;38.70;17.13;;;;;;;;;;5069246;28;20028;-65
2024/01/10 07:41:16;;;;;;;38.17;18.33;;;;;;;;;;5071910;28;20063;-65
2024/01/10 07:44:03;;;;;;;41.30;18.17;;;;;;;;;;5064873;28;20035;-66
2024/01/10 07:46:50;;;;;;;34.28;17.05;;;;;;;;;;5064573;28;20028;-65
2024/01/10 07:49:37;;;;;;;30.13;14.05;;;;;;;;;;5072303;28;20040;-65
2024/01/10 07:52:23;;;;;;;35.80;17.65;;;;;;;;;;5056605;28;20040;-65
2024/01/10 07:55:09;;;;;;;38.13;16.88;;;;;;;;;;5051214;28;20505;-65
2024/01/10 07:57:54;;;;;;;34.55;16.50;;;;;;;;;;5057150;28;20097;-65
2024/01/10 08:00:40;;;;;;;37.58;18.90;;;;;;;;;;5071496;28;20044;-65
2024/01/10 08:03:25;;;;;;;47.25;18.85;;;;;;;;;;5062652;28;20162;-65
2024/01/10 08:06:12;;;;;;;43.83;19.02;;;;;;;;;;5052051;28;20075;-65
2024/01/10 08:08:57;;;;;;;33.28;16.80;;;;;;;;;;5053654;28;20473;-65
2024/01/10 08:11:43;;;;;;;48.42;18.42;;;;;;;;;;5069755;28;20119;-65
2024/01/10 08:14:29;;;;;;;44.95;18.70;;;;;;;;;;5069855;28;20020;-65
2024/01/10 08:17:14;;;;;;;42.28;19.33;;;;;;;;;;5069879;28;20016;-65
2024/01/10 08:20:00;;;;;;;47.17;19.77;;;;;;;;;;5070902;28;20033;-65
2024/01/10 08:22:47;;;;;;;55.22;20.15;;;;;;;;;;5065179;28;20098;-66
2024/01/10 08:25:33;;;;;;;40.03;19.02;;;;;;;;;;5071477;28;20062;-65
2024/01/10 08:28:18;;;;;;;40.95;18.35;;;;;;;;;;5055970;28;20520;-66
2024/01/10 08:31:05;;;;;;;48.22;20.67;;;;;;;;;;5051740;28;20048;-65
2024/01/10 08:33:50;;;;;;;39.83;17.55;;;;;;;;;;5052038;28;20017;-66
2024/01/10 08:36:37;;;;;;;47.13;18.48;;;;;;;;;;5051145;28;20025;-65
2024/01/10 08:39:24;;;;;;;41.33;18.90;;;;;;;;;;5052824;28;20031;-65
2024/01/10 08:42:10;;;;;;;53.90;21.65;;;;;;;;;;5052726;28;20112;-66
2024/01/10 08:44:55;;;;;;;49.35;19.45;;;;;;;;;;5066280;28;20553;-66
2024/01/10 08:47:41;;;;;;;44.72;19.25;;;;;;;;;;5054299;28;20029;-65
2024/01/10 08:50:27;;;;;;;47.97;20.33;;;;;;;;;;5051011;28;20033;-66
2024/01/10 08:53:12;;;;;;;50.42;20.00;;;;;;;;;;5064037;28;20021;-66
2024/01/10 08:55:58;;;;;;;34.33;15.50;;;;;;;;;;5070964;28;20054;-66
2024/01/10 08:58:43;;;;;;;43.10;20.02;;;;;;;;;;5064586;28;20089;-66
2024/01/10 09:01:29;;;;;;;40.60;16.92;;;;;;;;;;5051806;28;20043;-65
2024/01/10 09:04:15;;;;;;;41.65;18.83;;;;;;;;;;5053660;28;20028;-66
2024/01/10 09:07:01;;;;;;;34.47;18.23;;;;;;;;;;5051833;28;20036;-65
2024/01/10 09:09:59;;;;;;;44.58;19.27;;;;;;;;;;5110105;27;20438;-66
2024/01/10 09:12:46;;;;;;;45.47;18.02;;;;;;;;;;5108288;28;20074;-65
2024/01/10 09:15:31;;;;;;;37.17;17.77;;;;;;;;;;5094084;28;20032;-68
2024/01/10 09:18:17;;;;;;;41.33;15.88;;;;;;;;;;5089838;28;20013;-65
2024/01/10 09:21:04;;;;;;;41.95;15.80;;;;;;;;;;5101554;28;20131;-66
2024/01/10 09:23:51;;;;;;;40.97;16.20;;;;;;;;;;5108541;28;20028;-65
2024/01/10 09:26:37;;;;;;;44.17;16.27;;;;;;;;;;5101689;28;20373;-66
2024/01/10 09:29:24;;;;;;;42.65;16.33;;;;;;;;;;5108153;28;20120;-66
2024/01/10 09:32:10;;;;;;;44.78;16.55;;;;;;;;;;5091129;28;20417;-66
2024/01/10 09:34:56;;;;;;;43.42;17.80;;;;;;;;;;5088516;28;20028;-66
2024/01/10 09:37:41;;;;;;;42.90;17.02;;;;;;;;;;5090545;28;20027;-65
2024/01/10 09:40:28;;;;;;;45.47;18.05;;;;;;;;;;5069120;28;20444;-65
2024/01/10 09:43:14;;;;;;;42.65;17.38;;;;;;;;;;5079096;28;20161;-65
2024/01/10 09:46:00;;;;;;;42.72;17.08;;;;;;;;;;5105496;28;20523;-65
2024/01/10 09:48:46;;;;;;;45.33;17.27;;;;;;;;;;5068845;28;20395;-66
2024/01/10 09:51:33;;;;;;;35.40;16.20;;;;;;;;;;5084877;28;20019;-66
2024/01/10 09:54:19;;;;;;;45.78;18.23;;;;;;;;;;5108417;28;20119;-65
2024/01/10 09:57:05;;;;;;;45.00;17.17;;;;;;;;;;5100717;28;20027;-65
2024/01/10 09:59:51;;;;;;;47.15;18.25;;;;;;;;;;5069292;28;20054;-65
2024/01/10 10:02:38;;;;;;;43.60;17.17;;;;;;;;;;5086088;28;20024;-65
2024/01/10 10:05:24;;;;;;;35.63;15.95;;;;;;;;;;5088309;28;20409;-65
2024/01/10 10:08:22;;;;;;;44.17;16.52;;;;;;;;;;5092015;28;20059;-66
2024/01/10 10:11:13;;;;;;;34.40;16.58;;;;;;;;;;5109082;28;20016;-66
2024/01/10 10:14:13;;;;;;;37.92;17.27;;;;;;;;;;5099744;28;20106;-66
2024/01/10 10:17:17;;;;;;;42.40;17.10;;;;;;;;;;5107913;28;20470;-65
2024/01/10 10:20:04;;;;;;;43.42;16.83;;;;;;;;;;5090366;28;20028;-66
2024/01/10 10:23:02;;;;;;;44.45;16.65;;;;;;;;;;5074378;28;20517;-66
2024/01/10 10:25:48;;;;;;;37.40;16.27;;;;;;;;;;5080098;28;20027;-66
2024/01/10 10:28:33;;;;;;;41.70;17.95;;;;;;;;;;5093940;28;20490;-66
2024/01/10 10:31:20;;;;;;;40.58;16.33;;;;;;;;;;5085346;28;20433;-66
2024/01/10 10:34:05;;;;;;;40.08;16.60;;;;;;;;;;5094352;28;20028;-66
2024/01/10 10:36:51;;;;;;;43.65;18.25;;;;;;;;;;5088168;28;20121;-66
2024/01/10 10:39:37;;;;;;;47.97;17.98;;;;;;;;;;5095232;28;20082;-65
2024/01/10 10:42:24;;;;;;;39.03;16.90;;;;;;;;;;5093768;28;20077;-65
2024/01/10 10:45:14;;;;;;;40.28;16.85;;;;;;;;;;5087394;28;20028;-66
2024/01/10 10:48:01;;;;;;;;;;;;;;;;;;5077706;28;20489;-66
2024/01/10 10:51:06;;;;;;;41.85;15.13;;;;;;;;;;5055475;28;19923;-66
2024/01/10 10:53:52;;;;;;;39.05;15.50;;;;;;;;;;5064005;28;20024;-66
2024/01/10 10:56:38;;;;;;;39.20;17.33;;;;;;;;;;5054205;28;20105;-66
2024/01/10 10:59:25;;;;;;;40.67;16.80;;;;;;;;;;5056570;28;20482;-65
2024/01/10 11:02:11;;;;;;;36.75;15.63;;;;;;;;;;5088513;28;20038;-65
2024/01/10 11:04:58;;;;;;;41.83;16.73;;;;;;;;;;5093431;28;20020;-66
2024/01/10 11:07:44;;;;;;;38.97;17.02;;;;;;;;;;5077886;28;20025;-65
2024/01/10 11:10:34;;;;;;;47.90;17.63;;;;;;;;;;5077003;28;20520;-65
2024/01/10 11:13:51;;;;;;;47.22;18.15;;;;;;;;;;5073250;28;20086;-66
2024/01/10 11:16:50;;;;;;;42.38;16.33;;;;;;;;;;5072168;28;20017;-66
2024/01/10 11:20:05;;;;;;;40.08;14.55;;;;;;;;;;5073631;28;20491;-66
2024/01/10 11:23:00;;;;;;;37.72;16.70;;;;;;;;;;5073425;28;20043;-65
2024/01/10 11:25:46;;;;;;;43.28;17.02;;;;;;;;;;5093901;28;20028;-66
2024/01/10 11:28:31;;;;;;;46.60;16.92;;;;;;;;;;5089390;28;20024;-66
2024/01/10 11:31:27;;;;;;;33.88;15.35;;;;;;;;;;5072772;28;20425;-65
2024/01/10 11:34:13;;;;;;;33.90;15.88;;;;;;;;;;5073592;28;20020;-65
2024/01/10 11:37:12;;;;;;;36.00;15.00;;;;;;;;;;5052291;28;20029;-65
2024/01/10 11:39:57;;;;;;;35.20;15.57;;;;;;;;;;5060534;28;20020;-66
2024/01/10 11:42:47;;;;;;;34.55;15.23;;;;;;;;;;5054019;28;20108;-65
2024/01/10 11:45:35;;;;;;;37.15;16.95;;;;;;;;;;5075562;28;20025;-65
2024/01/10 11:48:28;;;;;;;36.08;15.88;;;;;;;;;;5072950;28;20024;-65
2024/01/10 11:51:14;;;;;;;42.30;15.85;;;;;;;;;;5071973;28;20085;-66
2024/01/10 11:54:00;;;;;;;40.00;16.60;;;;;;;;;;5085278;28;20561;-66
2024/01/10 11:56:46;;;;;;;42.60;16.10;;;;;;;;;;5091291;28;20165;-65
2024/01/10 11:59:31;;;;;;;38.35;17.77;;;;;;;;;;5076159;28;20016;-66
2024/01/10 12:02:18;;;;;;;33.20;14.45;;;;;;;;;;5072799;28;20379;-66
2024/01/10 12:05:04;;;;;;;37.50;17.13;;;;;;;;;;5071921;28;20025;-66
2024/01/10 12:07:51;;;;;;;30.42;15.02;;;;;;;;;;5076615;28;20036;-65
2024/01/10 12:10:38;;;;;;;43.40;16.20;;;;;;;;;;5072164;28;20464;-65
2024/01/10 12:13:23;;;;;;;34.53;14.95;;;;;;;;;;5072795;28;20017;-66
2024/01/10 12:16:13;;;;;;;36.60;14.60;;;;;;;;;;5072030;28;20390;-65
2024/01/10 12:18:59;;;;;;;43.15;16.80;;;;;;;;;;5071496;28;20284;-65
2024/01/10 12:21:44;;;;;;;36.20;15.77;;;;;;;;;;5072516;28;20025;-65
2024/01/10 12:24:30;;;;;;;39.40;15.35;;;;;;;;;;5073135;28;20059;-65
2024/01/10 12:27:19;;;;;;;37.28;16.40;;;;;;;;;;5088044;28;20588;-65
2024/01/10 12:30:05;;;;;;;40.22;17.42;;;;;;;;;;5089509;28;20386;-66
2024/01/10 12:32:51;;;;;;;40.33;17.70;;;;;;;;;;5086805;28;20413;-65
2024/01/10 12:35:41;;;;;;;39.35;16.17;;;;;;;;;;5089738;28;20025;-65
2024/01/10 12:38:28;;;;;;;38.88;16.98;;;;;;;;;;5087482;28;20024;-65
2024/01/10 12:41:18;;;;;;;37.97;15.52;;;;;;;;;;5090652;28;20016;-65
2024/01/10 12:44:06;;;;;;;34.03;15.15;;;;;;;;;;5085000;28;20028;-65
2024/01/10 12:46:52;;;;;;;34.45;14.73;;;;;;;;;;5082455;28;20497;-66
2024/01/10 12:49:38;;;;;;;39.75;15.25;;;;;;;;;;5091541;28;20066;-65
2024/01/10 12:52:24;;;;;;;47.05;19.58;;;;;;;;;;5078134;28;20157;-66
2024/01/10 12:55:10;;;;;;;39.72;14.80;;;;;;;;;;5071609;28;20107;-65
2024/01/10 12:57:59;;;;;;;33.50;16.55;;;;;;;;;;5079777;28;20027;-66
2024/01/10 13:00:45;;;;;;;31.40;15.43;;;;;;;;;;5091285;28;20115;-66
2024/01/10 13:03:31;;;;;;;30.13;13.02;;;;;;;;;;5082996;28;20035;-66
2024/01/10 13:06:19;;;;;;;24.05;10.93;;;;;;;;;;5092325;28;20401;-66
2024/01/10 13:09:06;;;;;;;30.20;13.80;;;;;;;;;;5082833;28;20481;-66
2024/01/10 13:11:51;;;;;;;47.42;21.23;;;;;;;;;;5090938;28;20034;-66
2024/01/10 13:14:37;;;;;;;31.27;14.43;;;;;;;;;;5074655;28;20024;-66
2024/01/10 13:17:22;;;;;;;27.58;11.13;;;;;;;;;;5071957;28;20021;-66
2024/01/10 13:20:10;;;;;;;27.58;12.60;;;;;;;;;;5092816;28;20099;-66
2024/01/10 13:22:55;;;;;;;19.40;10.30;;;;;;;;;;5092629;28;20028;-66
2024/01/10 13:25:41;;;;;;;24.70;11.43;;;;;;;;;;5097723;28;20020;-66
2024/01/10 13:28:27;;;;;;;20.45;9.35;;;;;;;;;;5112716;28;20015;-66
2024/01/10 13:31:14;;;;;;;18.13;8.18;;;;;;;;;;5105794;28;20028;-66
2024/01/10 13:33:59;;;;;;;16.75;7.55;;;;;;;;;;5070757;28;20029;-66
2024/01/10 13:36:45;;;;;;;16.63;7.22;;;;;;;;;;5077727;28;20104;-66
2024/01/10 13:39:31;;;;;;;19.50;8.77;;;;;;;;;;5111122;28;20039;-66
2024/01/10 13:42:16;;;;;;;19.10;8.45;;;;;;;;;;5109716;28;20024;-65
2024/01/10 13:45:05;;;;;;;17.17;7.60;;;;;;;;;;5107440;28;20385;-66
2024/01/10 13:47:50;;;;;;;17.25;8.48;;;;;;;;;;5078430;28;20554;-66
2024/01/10 13:50:36;;;;;;;13.70;7.60;;;;;;;;;;5092773;28;20444;-66
2024/01/10 13:53:22;;;;;;;20.52;7.65;;;;;;;;;;5092723;28;20445;-66
2024/01/10 13:56:07;;;;;;;15.88;8.23;;;;;;;;;;5101638;28;20024;-66
2024/01/10 13:58:53;;;;;;;19.70;9.27;;;;;;;;;;5116229;28;20110;-66
2024/01/10 14:01:39;;;;;;;37.85;13.00;;;;;;;;;;5107488;28;20024;-66
2024/01/10 14:04:25;;;;;;;22.17;10.15;;;;;;;;;;5099578;28;20028;-66
2024/01/10 14:07:11;;;;;;;22.35;8.82;;;;;;;;;;5113171;28;20049;-65
2024/01/10 14:09:56;;;;;;;20.75;10.82;;;;;;;;;;5115735;28;20023;-66
2024/01/10 14:12:42;;;;;;;17.60;8.32;;;;;;;;;;5109086;28;20027;-66
2024/01/10 14:15:27;;;;;;;26.50;11.25;;;;;;;;;;5115593;28;20028;-65
2024/01/10 14:18:13;;;;;;;25.58;10.00;;;;;;;;;;5104845;28;20020;-66
2024/01/10 14:20:59;;;;;;;24.15;11.48;;;;;;;;;;5108349;28;20527;-66
2024/01/10 14:23:44;;;;;;;26.58;11.57;;;;;;;;;;5108754;28;20030;-66
2024/01/10 14:26:30;;;;;;;15.80;6.93;;;;;;;;;;5115336;28;20038;-66
2024/01/10 14:29:16;;;;;;;15.50;6.80;;;;;;;;;;5128303;22;20523;-70
2024/01/10 14:32:01;;;;;;;8.48;4.32;;;;;;;;;;5108831;28;20024;-70
2024/01/10 14:34:47;;;;;;;12.45;4.97;;;;;;;;;;5060223;28;20035;-70
2024/01/10 14:37:36;;;;;;;7.43;4.28;;;;;;;;;;5073937;28;20025;-70
2024/01/10 14:40:23;;;;;;;8.57;4.35;;;;;;;;;;5079898;28;20028;-70
2024/01/10 14:43:09;;;;;;;15.98;5.38;;;;;;;;;;5074807;28;20108;-70
2024/01/10 14:45:54;;;;;;;6.97;4.30;;;;;;;;;;5089721;28;20028;-70
2024/01/10 14:48:40;;;;;;;7.53;4.43;;;;;;;;;;5094601;28;20027;-70
2024/01/10 14:51:26;;;;;;;11.40;4.75;;;;;;;;;;5094719;28;20059;-69
2024/01/10 14:54:11;;;;;;;13.93;4.95;;;;;;;;;;5084553;28;20028;-70
2024/01/10 14:56:57;;;;;;;7.95;4.15;;;;;;;;;;5073639;28;20107;-69
2024/01/10 14:59:43;;;;;;;11.77;4.75;;;;;;;;;;5080978;28;20020;-69
2024/01/10 15:02:28;;;;;;;10.27;5.72;;;;;;;;;;5074369;28;20048;-70
2024/01/10 15:05:14;;;;;;;12.57;5.18;;;;;;;;;;5079553;28;20025;-71
2024/01/10 15:08:00;;;;;;;17.13;8.32;;;;;;;;;;5074213;28;20020;-71
2024/01/10 15:10:46;;;;;;;9.73;5.30;;;;;;;;;;5050235;28;20032;-71
2024/01/10 15:13:31;;;;;;;6.93;3.85;;;;;;;;;;5073958;28;20109;-70
2024/01/10 15:16:17;;;;;;;6.07;3.42;;;;;;;;;;5075461;28;20017;-70
2024/01/10 15:19:03;;;;;;;7.75;3.90;;;;;;;;;;5083049;28;20049;-69
2024/01/10 15:21:48;;;;;;;7.82;4.20;;;;;;;;;;5094855;28;20024;-69
2024/01/10 15:24:34;;;;;;;6.22;4.68;;;;;;;;;;5078878;28;20028;-70
2024/01/10 15:27:19;;;;;;;4.68;3.13;;;;;;;;;;5093527;28;20028;-70
2024/01/10 15:30:06;;;;;;;10.35;3.58;;;;;;;;;;5062176;28;20490;-70
2024/01/10 15:32:51;;;;;;;6.80;3.55;;;;;;;;;;5074097;28;20120;-70
2024/01/10 15:35:37;;;;;;;10.18;3.35;;;;;;;;;;5079422;28;20112;-70
2024/01/10 15:38:24;;;;;;;6.75;4.05;;;;;;;;;;5073249;28;20051;-71
2024/01/10 15:41:13;;;;;;;11.93;5.10;;;;;;;;;;5081118;28;20074;-68
2024/01/10 15:43:58;;;;;;;8.93;4.95;;;;;;;;;;5094275;28;20020;-69
2024/01/10 15:46:44;;;;;;;5.45;3.55;;;;;;;;;;5090418;28;20397;-68
2024/01/10 15:49:29;;;;;;;12.52;4.85;;;;;;;;;;5073307;28;20013;-69
2024/01/10 15:52:15;;;;;;;12.27;4.85;;;;;;;;;;5078087;28;20032;-68
2024/01/10 15:55:01;;;;;;;9.63;6.20;;;;;;;;;;5093611;28;20111;-69
2024/01/10 15:57:46;;;;;;;10.80;5.57;;;;;;;;;;5090250;28;20039;-69
2024/01/10 16:00:32;;;;;;;7.50;3.88;;;;;;;;;;5090990;28;20054;-69
2024/01/10 16:03:18;;;;;;;10.30;5.35;;;;;;;;;;5092082;28;20032;-69
2024/01/10 16:06:04;;;;;;;13.32;5.30;;;;;;;;;;5093718;28;20020;-70
2024/01/10 16:08:49;;;;;;;11.55;5.40;;;;;;;;;;5066418;28;20032;-68
2024/01/10 16:11:44;;;;;;;9.30;5.10;;;;;;;;;;5072179;28;20086;-68
2024/01/10 16:14:30;;;;;;;12.73;5.22;;;;;;;;;;5079722;28;20032;-68